Roland, IA

6:31 AM CDT on August 23, 2014 (GMT -0500)
Boone Municipal | Change Station
CLOSE
Current Station
Airport
Location: Boone,
Elevation: 1161 ft
Nearby Weather Stations

Elev 1161 ft 42.05 °N, 93.85 °W | Updated 16 minutes ago

Light Rain
Light Rain
72 °F
Feels Like 72 °F
N
8
Wind Variable Wind from SSW
Gusts 15 mph

Today
High -- | Low -- °F
--% Chance of Precip.
Yesterday
High -- | Low -- °F
Precip. -- in
6:29 AM 8:02 PM
Waning Crescent, 4% visible
Pressure 29.96 in
Visibility 5.0 miles
Clouds Scattered Clouds 1200 ft
Mostly Cloudy 2700 ft
Overcast 3900 ft
Dew Point 72 °F
Humidity 100%
Rainfall 0.60 in
Snow Depth Not available.
UV 0 out of 12
Pollen 5.80 out of 12
Air Quality Not available.
Flu Activity Not available.
METAR KBNW 231115Z AUTO 20007G13KT 5SM -RA SCT012 BKN027 OVC039 22/22 A2996 RMK AO2

More Conditions Fewer Conditions

Pressure 29.96 in
Visibility 5.0 miles
Clouds Scattered Clouds 1200 ft
Mostly Cloudy 2700 ft
Overcast 3900 ft
Dew Point 72 °F
Humidity 100%
Rainfall 0.60 in
Snow Depth Not available.
UV 0 out of 12
Pollen 5.80 out of 12
Air Quality Not available.
Flu Activity Not available.
METAR KBNW 231115Z AUTO 20007G13KT 5SM -RA SCT012 BKN027 OVC039 22/22 A2996 RMK AO2

More Conditions Fewer Conditions

10-Day Weather Forecast

Almanac

Astronomy

Aug. 23, 2014 Rise Set
Actual Time 6:29 AM CDT 8:02 PM CDT
Civil Twilight 6:00 AM CDT 8:31 PM CDT
Nautical Twilight 5:24 AM CDT 9:07 PM CDT
Astronomical Twilight 4:46 AM CDT 9:44 PM CDT
Moon 4:46 AM CDT 6:47 PM CDT
Length of Visible Light 14h 31m
Length of Day
13h 32m
Tomorrow will be 2m 38s shorter.
Waning Crescent, 4% of the Moon is Illuminated
Today
Waning Crescent
Aug 25
New
Sep 2
First Quarter
Sep 8
Full
Sep 15
Last Quarter

Today's Extremes

State Highs State Lows

Community

WunderPhotos

Upload Photos

1,746,418 photos uploaded!

WunderBlogs® & News

By Dr. Jeff Masters
Director of Meteorology, Weather Underground
By Kari Strenfel
Meteorologist, Weather Underground
By Christopher C. Burt
Weather Historian, Weather Underground
August 23, 2014
August 23, 2014
August 23, 2014

Nearby

Snow Depth

Station Depth Elevation
No new snow has been reported.

Earthquake Activity

City Distance Mag. Time & Date
No recent earthquake activity has been reported nearby.
Minimum magnitude displayed is 2.5.

Coastal Water Temperatures

Place Temperature
No Stations Reporting

Nearby Weather Stations